YPPD

Details ICAO YPPD (PHE)
Name Port Hedland Intl
Region Australia
Timezone Australia/Perth (UTC+8.0)
Plans Departing 45
Arriving 54
Stats Elevation 33 ft / 10 m (AMSL)
Location -20.378600° 118.629000°
Runways 2
Magnetic Variation 1.215° E
Sunrise 2018-11-18 21:18:24 UTC / 2018-11-19 05:18:24 Local
Sunset 2018-11-19 10:26:01 UTC / 2018-11-19 18:26:01 Local
Advertisement - Login to hide

Runways

ID Width Length Bearing (true/mag) Surface Threshold Overrun Markings Lighting
14 148 ft / 45 m 8,216 ft / 2,504 m 137.60° / 136.39° ASPHALT 0 ft / 0 m 0 ft / 0 m APP EDGE THRESHOLD
18 59 ft / 18 m 3,292 ft / 1,003 m 2.40° / 1.19° ASPHALT 0 ft / 0 m 0 ft / 0 m VISUAL EDGE THRESHOLD
32 148 ft / 45 m 8,216 ft / 2,504 m 317.60° / 316.38° ASPHALT 0 ft / 0 m 0 ft / 0 m APP EDGE THRESHOLD
36 59 ft / 18 m 3,292 ft / 1,003 m 182.40° / 181.19° ASPHALT 0 ft / 0 m 0 ft / 0 m VISUAL EDGE THRESHOLD

Map

Weather


0- 5 10 15 20 25 30 35+ Temperature / °C

Clouds and Precipitation
Forecast for 2018-11-19 06:00 UTC. Updated 4 hours ago

Ground ~20,000 ft ~40,000 ft Winds

METAR

YPPD 190700Z AUTO 30017KT 9999 // BKN071 40/11 Q1004

TAF

TAF YPPD 190507Z 1906/2006 30018KT CAVOK BECMG 1912/1914 26012KT CAVOK FM200400 30018KT CAVOK

Frequencies

Unicom 119.60 MHz ACTIVATE LIGHTS ONLY MULT
Unicom 118.60 MHz MELBOURNE CENTRE MULT
Unicom 119.90 MHz PORT HEDLAND MULT
Warning: Do not use this data for real-world aviation or navigation. No guarantee of current accuracy is given.